createdAt,value
2023-04-24T00:00:37.211Z,11.61
2023-04-24T00:03:05.028Z,11.62
2023-04-24T00:05:32.579Z,11.59
2023-04-24T00:08:00.088Z,11.59
2023-04-24T00:10:27.558Z,11.59
2023-04-24T00:12:56.400Z,11.63
2023-04-24T00:15:24.123Z,11.61
2023-04-24T00:17:52.702Z,11.49
2023-04-24T00:20:20.349Z,11.57
2023-04-24T00:22:47.820Z,11.56
2023-04-24T00:25:15.358Z,11.42
2023-04-24T00:27:42.861Z,11.37
2023-04-24T00:30:12.517Z,11.36
2023-04-24T00:32:40.038Z,11.45
2023-04-24T00:35:08.407Z,11.43
2023-04-24T00:37:35.944Z,11.39
2023-04-24T00:40:03.926Z,11.32
2023-04-24T00:42:31.456Z,11.32
2023-04-24T00:44:58.933Z,11.32
2023-04-24T00:47:27.767Z,11.33
2023-04-24T00:49:55.294Z,11.35
2023-04-24T00:52:25.245Z,11.36
2023-04-24T00:54:52.779Z,11.37
2023-04-24T00:57:20.345Z,11.37
2023-04-24T00:59:48.153Z,11.43
2023-04-24T01:02:16.658Z,11.48
2023-04-24T01:04:45.720Z,11.45
2023-04-24T01:07:14.005Z,11.47
2023-04-24T01:09:42.857Z,11.52
2023-04-24T01:12:10.804Z,11.46
2023-04-24T01:14:39.222Z,11.46
2023-04-24T01:17:06.792Z,11.46
2023-04-24T01:19:34.310Z,11.38
2023-04-24T01:22:04.735Z,11.47
2023-04-24T01:24:33.642Z,11.47
2023-04-24T01:27:02.170Z,11.54
2023-04-24T01:29:29.884Z,11.57
2023-04-24T01:31:59.325Z,11.61
2023-04-24T01:34:27.272Z,11.61
2023-04-24T01:36:54.873Z,11.70
2023-04-24T01:39:24.173Z,11.64
2023-04-24T01:41:53.208Z,11.58
2023-04-24T01:44:20.696Z,11.56
2023-04-24T01:46:49.228Z,11.51
2023-04-24T01:49:16.854Z,11.50
2023-04-24T01:51:46.372Z,11.44
2023-04-24T01:54:14.249Z,11.46
2023-04-24T01:56:43.442Z,11.42
2023-04-24T01:59:13.302Z,11.37
2023-04-24T02:01:41.081Z,11.35
2023-04-24T02:04:09.856Z,11.34
2023-04-24T02:06:37.505Z,11.35
2023-04-24T02:09:05.254Z,11.28
2023-04-24T02:11:32.776Z,11.31
2023-04-24T02:14:00.390Z,11.30
2023-04-24T02:16:31.432Z,11.32
2023-04-24T02:18:59.067Z,11.25
2023-04-24T02:21:26.552Z,11.26
2023-04-24T02:23:54.173Z,11.31
2023-04-24T02:26:21.710Z,11.20
2023-04-24T02:28:49.481Z,11.17
2023-04-24T02:31:17.196Z,11.14
2023-04-24T02:33:46.015Z,11.19
2023-04-24T02:36:14.196Z,11.20
2023-04-24T02:38:42.256Z,11.17
2023-04-24T02:41:09.854Z,11.10
2023-04-24T02:43:37.319Z,11.06
2023-04-24T02:46:05.568Z,11.05
2023-04-24T02:48:33.062Z,11.04
2023-04-24T02:51:01.945Z,11.07
2023-04-24T02:53:30.855Z,11.16
2023-04-24T02:55:58.569Z,11.08
2023-04-24T02:58:26.105Z,10.98
2023-04-24T03:00:55.768Z,11.00
2023-04-24T03:03:23.407Z,10.96
2023-04-24T03:05:51.402Z,11.00
2023-04-24T03:08:20.649Z,11.06
2023-04-24T03:10:48.501Z,11.04
2023-04-24T03:13:17.340Z,10.92
2023-04-24T03:15:44.872Z,10.92
2023-04-24T03:18:12.475Z,10.90
2023-04-24T03:20:40.405Z,10.88
2023-04-24T03:23:08.662Z,10.80
2023-04-24T03:25:39.829Z,10.75
2023-04-24T03:28:07.552Z,10.69
2023-04-24T03:30:40.937Z,10.71
2023-04-24T03:33:09.246Z,10.70
2023-04-24T03:35:39.991Z,10.68
2023-04-24T03:38:11.559Z,10.70
2023-04-24T03:40:52.433Z,10.69
2023-04-24T03:43:38.937Z,10.68
2023-04-24T03:46:07.935Z,10.65
2023-04-24T03:48:39.469Z,10.62
2023-04-24T03:51:08.708Z,10.60
2023-04-24T03:53:38.038Z,10.60
2023-04-24T03:56:07.041Z,10.54
2023-04-24T03:58:35.504Z,10.50
2023-04-24T04:01:03.779Z,10.48
2023-04-24T04:03:44.951Z,10.46
2023-04-24T04:06:14.018Z,10.45
2023-04-24T04:08:42.371Z,10.46
2023-04-24T04:11:12.416Z,10.44
2023-04-24T04:13:39.890Z,10.42
2023-04-24T04:16:07.681Z,10.43
2023-04-24T04:18:35.773Z,10.45
2023-04-24T04:21:07.285Z,10.50
2023-04-24T04:23:35.268Z,10.50
2023-04-24T04:26:13.435Z,10.53
2023-04-24T04:28:54.116Z,10.53
2023-04-24T04:31:21.927Z,10.56
2023-04-24T04:33:50.432Z,10.54
2023-04-24T04:36:18.422Z,10.46
2023-04-24T04:38:50.526Z,10.41
2023-04-24T04:41:41.453Z,10.43
2023-04-24T04:44:10.784Z,10.36
2023-04-24T04:46:39.467Z,10.40
2023-04-24T04:49:14.126Z,10.42
2023-04-24T04:51:43.057Z,10.32
2023-04-24T04:54:10.928Z,10.35
2023-04-24T04:56:40.942Z,10.30
2023-04-24T04:59:08.521Z,10.33
2023-04-24T05:01:38.948Z,10.35
2023-04-24T05:04:08.703Z,10.34
2023-04-24T05:06:36.573Z,10.38
2023-04-24T05:09:05.962Z,10.38
2023-04-24T05:11:45.389Z,10.46
2023-04-24T05:14:14.292Z,10.53
2023-04-24T05:16:43.880Z,10.53
2023-04-24T05:19:14.877Z,10.53
2023-04-24T05:21:42.956Z,10.60
2023-04-24T05:24:11.907Z,10.61
2023-04-24T05:27:06.678Z,10.62
2023-04-24T05:29:39.149Z,10.61
2023-04-24T05:32:07.670Z,10.61
2023-04-24T05:34:35.995Z,10.63
2023-04-24T05:37:04.301Z,10.60
2023-04-24T05:39:31.808Z,10.62
2023-04-24T05:42:02.302Z,10.62
2023-04-24T05:44:31.193Z,10.59
2023-04-24T05:46:58.831Z,10.55
2023-04-24T05:49:26.426Z,10.58
2023-04-24T05:51:54.562Z,10.61
2023-04-24T05:54:22.090Z,10.64
2023-04-24T05:56:49.860Z,10.70
2023-04-24T05:59:25.463Z,10.72
2023-04-24T06:01:54.467Z,10.72
2023-04-24T06:04:25.770Z,10.74
2023-04-24T06:06:56.746Z,10.80
2023-04-24T06:09:24.368Z,10.80
2023-04-24T06:11:53.699Z,10.82
2023-04-24T06:14:23.922Z,10.91
2023-04-24T06:17:15.745Z,10.95
2023-04-24T06:19:43.757Z,10.96
2023-04-24T06:22:11.848Z,10.97
2023-04-24T06:24:39.360Z,10.99
2023-04-24T06:27:06.896Z,11.02
2023-04-24T06:29:35.059Z,11.09
2023-04-24T06:32:02.625Z,11.11
2023-04-24T06:34:31.756Z,11.17
2023-04-24T06:36:59.277Z,11.18
2023-04-24T06:39:26.742Z,11.21
2023-04-24T06:41:54.228Z,11.18
2023-04-24T06:44:21.688Z,11.23
2023-04-24T06:46:49.189Z,11.34
2023-04-24T06:49:17.388Z,11.35
2023-04-24T06:51:46.195Z,11.32
2023-04-24T06:54:13.747Z,11.32
2023-04-24T06:56:41.276Z,11.40
2023-04-24T06:59:08.788Z,11.44
2023-04-24T07:01:36.368Z,11.57
2023-04-24T07:04:04.003Z,11.53
2023-04-24T07:06:31.745Z,11.61
2023-04-24T07:09:01.170Z,11.69
2023-04-24T07:11:30.188Z,11.67
2023-04-24T07:13:57.831Z,11.67
2023-04-24T07:16:25.416Z,11.76
2023-04-24T07:18:52.919Z,11.88
2023-04-24T07:21:20.389Z,11.86
2023-04-24T07:23:47.889Z,11.98
2023-04-24T07:26:16.938Z,12.11
2023-04-24T07:28:44.557Z,12.07
2023-04-24T07:31:13.298Z,12.11
2023-04-24T07:33:40.813Z,12.21
2023-04-24T07:36:08.371Z,12.22
2023-04-24T07:38:35.870Z,12.18
2023-04-24T07:41:03.610Z,12.17
2023-04-24T07:43:32.457Z,12.16
2023-04-24T07:46:00.119Z,12.16
2023-04-24T07:48:27.613Z,12.20
2023-04-24T07:50:55.173Z,12.21
2023-04-24T07:53:22.721Z,12.23
2023-04-24T07:55:50.260Z,12.28
2023-04-24T07:58:18.002Z,12.25
2023-04-24T08:00:47.290Z,12.26
2023-04-24T08:03:14.906Z,12.14
2023-04-24T08:05:44.031Z,12.13
2023-04-24T08:08:11.674Z,12.08
2023-04-24T08:10:41.587Z,12.19
2023-04-24T08:13:09.110Z,12.15
2023-04-24T08:15:36.688Z,12.09
2023-04-24T08:18:05.754Z,12.14
2023-04-24T08:20:33.281Z,12.16
2023-04-24T08:23:00.748Z,11.99
2023-04-24T08:25:28.320Z,11.93
2023-04-24T08:27:56.366Z,11.87
2023-04-24T08:30:24.200Z,11.86
2023-04-24T08:32:51.732Z,11.91
2023-04-24T08:35:20.826Z,12.06
2023-04-24T08:37:48.314Z,12.22
2023-04-24T08:40:17.320Z,12.31
2023-04-24T08:42:45.941Z,12.33
2023-04-24T08:45:14.274Z,12.22
2023-04-24T08:47:42.297Z,12.07
2023-04-24T08:50:10.823Z,12.19
2023-04-24T08:52:39.719Z,12.12
2023-04-24T08:55:08.024Z,12.07
2023-04-24T08:57:36.901Z,12.15
2023-04-24T09:00:05.654Z,12.07
2023-04-24T09:02:35.315Z,12.17
2023-04-24T09:05:03.904Z,12.08
2023-04-24T09:07:32.358Z,12.04
2023-04-24T09:10:01.354Z,12.07
2023-04-24T09:12:28.959Z,12.12
2023-04-24T09:14:56.866Z,12.21
2023-04-24T09:17:24.736Z,12.37
2023-04-24T09:19:52.201Z,12.49
2023-04-24T09:22:19.759Z,12.57
2023-04-24T09:24:47.591Z,12.72
2023-04-24T09:27:18.744Z,12.74
2023-04-24T09:29:55.583Z,12.73
2023-04-24T09:32:26.117Z,13.04
2023-04-24T09:35:08.263Z,13.01
2023-04-24T09:37:37.720Z,12.93
2023-04-24T09:40:13.493Z,12.72
2023-04-24T09:42:42.426Z,12.93
2023-04-24T09:45:15.613Z,12.85
2023-04-24T09:47:44.411Z,12.92
2023-04-24T09:50:14.116Z,13.14
2023-04-24T09:52:43.939Z,13.23
2023-04-24T09:55:18.819Z,13.11
2023-04-24T09:57:52.212Z,13.18
2023-04-24T10:00:29.352Z,13.19
2023-04-24T10:02:58.466Z,13.08
2023-04-24T10:05:28.094Z,12.68
2023-04-24T10:07:59.324Z,12.59
2023-04-24T10:10:26.946Z,12.57
2023-04-24T10:12:56.673Z,12.62
2023-04-24T10:15:24.409Z,12.68
2023-04-24T10:17:54.303Z,12.87
2023-04-24T10:20:23.353Z,12.91
2023-04-24T10:22:52.423Z,12.72
2023-04-24T10:25:21.864Z,12.97
2023-04-24T10:27:50.853Z,13.07
2023-04-24T10:30:20.328Z,12.84
2023-04-24T10:32:48.172Z,12.92
2023-04-24T10:35:16.930Z,13.03
2023-04-24T10:37:47.036Z,13.05
2023-04-24T10:40:19.547Z,13.14
2023-04-24T10:42:49.625Z,13.36
2023-04-24T10:45:23.242Z,13.34
2023-04-24T10:47:55.448Z,13.53
2023-04-24T10:50:23.055Z,13.48
2023-04-24T10:52:52.257Z,13.56
2023-04-24T10:55:41.260Z,13.75
2023-04-24T10:58:08.753Z,13.76
2023-04-24T11:00:41.281Z,13.87
2023-04-24T11:03:14.986Z,14.05
2023-04-24T11:06:01.732Z,13.73
2023-04-24T11:08:31.628Z,13.76
2023-04-24T11:11:03.863Z,14.29
2023-04-24T11:14:12.027Z,14.33
2023-04-24T11:16:48.398Z,13.81
2023-04-24T11:19:26.094Z,13.87
2023-04-24T11:22:01.371Z,14.16
2023-04-24T11:24:31.658Z,14.33
2023-04-24T11:27:00.466Z,14.45
2023-04-24T11:29:45.447Z,13.86
2023-04-24T11:32:25.352Z,13.65
2023-04-24T11:34:54.219Z,13.40
2023-04-24T11:37:21.876Z,13.50
2023-04-24T11:39:52.905Z,13.53
2023-04-24T11:42:20.736Z,13.54
2023-04-24T11:44:49.385Z,13.90
2023-04-24T11:47:18.260Z,13.81
2023-04-24T11:49:45.941Z,13.73
2023-04-24T11:52:17.564Z,13.46
2023-04-24T11:54:50.008Z,13.35
2023-04-24T11:57:17.705Z,13.37
2023-04-24T11:59:45.263Z,13.66
2023-04-24T12:02:23.932Z,13.57
2023-04-24T12:04:52.208Z,13.31
2023-04-24T12:07:19.992Z,13.16
2023-04-24T12:09:49.307Z,13.19
2023-04-24T12:12:19.666Z,13.07
2023-04-24T12:14:49.792Z,12.79
2023-04-24T12:17:17.505Z,12.91
2023-04-24T12:19:50.176Z,13.00
2023-04-24T12:22:17.958Z,13.08
2023-04-24T12:25:01.863Z,13.01
2023-04-24T12:27:32.141Z,13.01
2023-04-24T12:30:00.810Z,13.02
2023-04-24T12:32:28.495Z,12.94
2023-04-24T12:34:57.713Z,12.86
2023-04-24T12:37:26.633Z,13.03
2023-04-24T12:40:01.298Z,13.47
2023-04-24T12:42:29.311Z,13.89
2023-04-24T12:45:02.561Z,14.10
2023-04-24T12:47:30.735Z,14.26
2023-04-24T12:49:59.803Z,14.11
2023-04-24T12:52:28.542Z,14.20
2023-04-24T12:54:57.921Z,13.63
2023-04-24T12:57:25.993Z,13.26
2023-04-24T12:59:56.507Z,13.29
2023-04-24T13:02:24.368Z,13.11
2023-04-24T13:04:52.722Z,13.02
2023-04-24T13:07:21.701Z,12.86
2023-04-24T13:09:50.897Z,12.84
2023-04-24T13:12:18.583Z,12.75
2023-04-24T13:14:47.202Z,12.89
2023-04-24T13:17:15.175Z,12.94
2023-04-24T13:19:44.965Z,12.93
2023-04-24T13:22:13.323Z,12.92
2023-04-24T13:24:42.951Z,13.13
2023-04-24T13:27:11.014Z,13.25
2023-04-24T13:29:38.750Z,13.36
2023-04-24T13:32:06.475Z,13.55
2023-04-24T13:34:35.460Z,13.82
2023-04-24T13:37:04.669Z,13.88
2023-04-24T13:39:32.250Z,13.84
2023-04-24T13:42:03.234Z,13.66
2023-04-24T13:44:32.037Z,13.57
2023-04-24T13:47:00.007Z,13.62
2023-04-24T13:49:28.123Z,13.57
2023-04-24T13:51:56.131Z,13.54
2023-04-24T13:54:24.434Z,13.44
2023-04-24T13:56:52.967Z,13.72
2023-04-24T13:59:22.321Z,13.75
2023-04-24T14:01:50.112Z,13.76
2023-04-24T14:04:18.177Z,13.77
2023-04-24T14:06:45.941Z,13.92
2023-04-24T14:09:13.766Z,13.61
2023-04-24T14:11:41.564Z,13.45
2023-04-24T14:14:09.461Z,13.53
2023-04-24T14:16:38.351Z,13.35
2023-04-24T14:19:06.383Z,12.97
2023-04-24T14:21:34.504Z,12.81
2023-04-24T14:24:02.114Z,12.83
2023-04-24T14:26:29.681Z,12.87
2023-04-24T14:29:04.054Z,13.01
2023-04-24T14:31:40.259Z,13.04
2023-04-24T14:34:07.784Z,13.06
2023-04-24T14:36:35.287Z,12.93
2023-04-24T14:39:06.063Z,12.80
2023-04-24T14:41:36.434Z,12.82
2023-04-24T14:44:04.564Z,12.70
2023-04-24T14:46:32.173Z,12.67
2023-04-24T14:49:01.276Z,12.77
2023-04-24T14:51:28.862Z,12.65
2023-04-24T14:53:56.376Z,12.57
2023-04-24T14:56:23.896Z,12.63
2023-04-24T14:58:51.383Z,12.65
2023-04-24T15:01:19.061Z,12.38
2023-04-24T15:03:47.165Z,12.27
2023-04-24T15:06:16.454Z,12.07
2023-04-24T15:08:44.013Z,11.80
2023-04-24T15:11:12.119Z,11.83
2023-04-24T15:13:39.770Z,11.88
2023-04-24T15:16:07.705Z,12.04
2023-04-24T15:18:35.325Z,12.09
2023-04-24T15:21:02.848Z,12.29
2023-04-24T15:23:32.522Z,12.45
2023-04-24T15:26:02.152Z,12.45
2023-04-24T15:28:29.664Z,12.28
2023-04-24T15:30:57.149Z,12.22
2023-04-24T15:33:25.085Z,12.34
2023-04-24T15:35:52.561Z,12.47
2023-04-24T15:38:20.059Z,12.60
2023-04-24T15:40:49.295Z,12.70
2023-04-24T15:43:17.100Z,12.44
2023-04-24T15:45:45.294Z,11.96
2023-04-24T15:48:13.318Z,11.87
2023-04-24T15:50:40.849Z,11.64
2023-04-24T15:53:08.349Z,11.39
2023-04-24T15:55:37.335Z,11.54
2023-04-24T15:58:06.358Z,11.74
2023-04-24T16:00:35.494Z,11.80
2023-04-24T16:03:03.220Z,11.72
2023-04-24T16:05:31.010Z,11.79
2023-04-24T16:07:58.761Z,11.88
2023-04-24T16:10:26.259Z,11.91
2023-04-24T16:12:54.539Z,11.86
2023-04-24T16:15:23.381Z,12.18
2023-04-24T16:17:51.335Z,12.23
2023-04-24T16:20:19.148Z,11.84
2023-04-24T16:22:46.724Z,11.71
2023-04-24T16:25:14.275Z,11.64
2023-04-24T16:27:41.921Z,11.67
2023-04-24T16:30:10.497Z,11.58
2023-04-24T16:32:39.384Z,11.67
2023-04-24T16:35:07.351Z,11.51
2023-04-24T16:37:34.850Z,11.53
2023-04-24T16:40:02.804Z,11.44
2023-04-24T16:42:30.456Z,11.43
2023-04-24T16:44:57.945Z,11.29
2023-04-24T16:47:25.460Z,11.20
2023-04-24T16:49:54.552Z,11.30
2023-04-24T16:52:22.143Z,11.18
2023-04-24T16:54:49.617Z,10.90
2023-04-24T16:57:17.210Z,10.93
2023-04-24T16:59:44.669Z,10.92
2023-04-24T17:02:12.195Z,10.76
2023-04-24T17:04:39.754Z,10.45
2023-04-24T17:07:08.850Z,10.40
2023-04-24T17:09:36.332Z,10.41
2023-04-24T17:12:03.830Z,10.33
2023-04-24T17:14:31.438Z,10.37
2023-04-24T17:16:59.324Z,10.42
2023-04-24T17:19:26.995Z,10.48
2023-04-24T17:21:54.511Z,10.26
2023-04-24T17:24:23.376Z,10.21
2023-04-24T17:26:51.151Z,10.17
2023-04-24T17:29:19.373Z,10.19
2023-04-24T17:31:46.939Z,10.23
2023-04-24T17:34:14.442Z,10.17
2023-04-24T17:36:41.945Z,10.18
2023-04-24T17:39:10.757Z,10.06
2023-04-24T17:41:39.581Z,9.98
2023-04-24T17:44:07.202Z,10.07
2023-04-24T17:46:35.207Z,9.90
2023-04-24T17:49:02.849Z,9.95
2023-04-24T17:51:30.428Z,9.97
2023-04-24T17:53:57.917Z,9.90
2023-04-24T17:56:25.728Z,9.97
2023-04-24T17:58:54.775Z,9.87
2023-04-24T18:01:24.156Z,9.77
2023-04-24T18:03:52.740Z,9.86
2023-04-24T18:06:20.416Z,9.91
2023-04-24T18:08:48.104Z,9.85
2023-04-24T18:11:15.860Z,9.78
2023-04-24T18:13:43.360Z,9.80
2023-04-24T18:16:12.343Z,9.83
2023-04-24T18:18:40.088Z,9.78
2023-04-24T18:21:07.615Z,9.81
2023-04-24T18:23:35.998Z,9.80
2023-04-24T18:26:03.540Z,9.78
2023-04-24T18:28:34.561Z,9.77
2023-04-24T18:31:02.413Z,9.64
2023-04-24T18:33:31.294Z,9.72
2023-04-24T18:35:58.840Z,9.69
2023-04-24T18:38:27.026Z,9.68
2023-04-24T18:40:54.543Z,9.55
2023-04-24T18:43:22.165Z,9.62
2023-04-24T18:45:49.689Z,9.52
2023-04-24T18:48:17.366Z,9.48
2023-04-24T18:50:46.179Z,9.48
2023-04-24T18:53:16.754Z,9.43
2023-04-24T18:55:44.226Z,9.32
2023-04-24T18:58:11.914Z,9.26
2023-04-24T19:00:39.454Z,9.22
2023-04-24T19:03:08.674Z,9.28
2023-04-24T19:05:36.347Z,9.20
2023-04-24T19:08:05.171Z,9.17
2023-04-24T19:10:34.328Z,9.14
2023-04-24T19:13:02.208Z,9.09
2023-04-24T19:15:29.936Z,9.05
2023-04-24T19:17:57.642Z,8.98
2023-04-24T19:20:26.284Z,8.97
2023-04-24T19:22:53.837Z,8.97
2023-04-24T19:25:22.825Z,9.00
2023-04-24T19:27:50.373Z,8.85
2023-04-24T19:30:19.946Z,8.88
2023-04-24T19:32:47.498Z,8.89
2023-04-24T19:35:15.112Z,8.87
2023-04-24T19:37:42.592Z,8.89
2023-04-24T19:40:10.765Z,8.83
2023-04-24T19:42:44.199Z,8.87
2023-04-24T19:45:13.081Z,8.86
2023-04-24T19:47:40.741Z,8.83
2023-04-24T19:50:09.207Z,8.82
2023-04-24T19:52:36.792Z,8.86
2023-04-24T19:55:04.507Z,8.89
2023-04-24T19:57:32.121Z,8.77
2023-04-24T20:00:01.003Z,8.77
2023-04-24T20:02:28.636Z,8.83
2023-04-24T20:04:56.244Z,8.72
2023-04-24T20:07:23.921Z,8.71
2023-04-24T20:09:51.411Z,8.68
2023-04-24T20:12:19.478Z,8.75
2023-04-24T20:14:47.813Z,8.74
2023-04-24T20:17:16.670Z,8.74
2023-04-24T20:19:44.794Z,8.70
2023-04-24T20:22:13.417Z,8.66
2023-04-24T20:24:41.375Z,8.68
2023-04-24T20:27:08.911Z,8.61
2023-04-24T20:29:36.422Z,8.54
2023-04-24T20:32:04.025Z,8.45
2023-04-24T20:34:32.864Z,8.56
2023-04-24T20:37:00.856Z,8.44
2023-04-24T20:39:28.332Z,8.39
2023-04-24T20:41:55.812Z,8.40
2023-04-24T20:44:23.384Z,8.39
2023-04-24T20:46:51.006Z,8.24
2023-04-24T20:49:18.532Z,8.28
2023-04-24T20:51:47.351Z,8.32
2023-04-24T20:54:15.005Z,8.31
2023-04-24T20:56:42.512Z,8.17
2023-04-24T20:59:10.036Z,8.21
2023-04-24T21:01:37.623Z,8.16
2023-04-24T21:04:05.493Z,8.14
2023-04-24T21:06:33.013Z,8.16
2023-04-24T21:09:01.925Z,8.17
2023-04-24T21:11:29.482Z,8.17
2023-04-24T21:13:59.263Z,8.12
2023-04-24T21:16:27.090Z,8.19
2023-04-24T21:18:54.747Z,8.06
2023-04-24T21:21:22.333Z,8.08
2023-04-24T21:23:49.950Z,8.00
2023-04-24T21:26:18.948Z,7.98
2023-04-24T21:28:46.659Z,8.06
2023-04-24T21:31:14.131Z,8.04
2023-04-24T21:33:41.643Z,8.10
2023-04-24T21:36:09.413Z,8.17
2023-04-24T21:38:37.002Z,8.20
2023-04-24T21:41:04.541Z,8.10
2023-04-24T21:43:43.800Z,8.15
2023-04-24T21:46:11.904Z,7.87
2023-04-24T21:48:39.386Z,7.92
2023-04-24T21:51:06.954Z,7.93
2023-04-24T21:53:34.523Z,7.79
2023-04-24T21:56:02.116Z,7.69
2023-04-24T21:58:29.760Z,7.73
2023-04-24T22:00:58.932Z,7.67
2023-04-24T22:03:26.674Z,7.55
2023-04-24T22:05:54.264Z,7.61
2023-04-24T22:08:21.872Z,7.55
2023-04-24T22:10:49.478Z,7.59
2023-04-24T22:13:16.958Z,7.61
2023-04-24T22:15:44.457Z,7.64
2023-04-24T22:18:13.407Z,7.66
2023-04-24T22:20:41.024Z,7.66
2023-04-24T22:23:08.757Z,7.65
2023-04-24T22:25:36.280Z,7.63
2023-04-24T22:28:03.928Z,7.64
2023-04-24T22:30:31.493Z,7.53
2023-04-24T22:32:59.116Z,7.59
2023-04-24T22:35:27.953Z,7.55
2023-04-24T22:37:55.904Z,7.55
2023-04-24T22:40:23.682Z,7.56
2023-04-24T22:42:51.240Z,7.60
2023-04-24T22:45:18.864Z,7.67
2023-04-24T22:47:46.438Z,7.61
2023-04-24T22:50:13.969Z,7.65
2023-04-24T22:52:43.831Z,7.62
2023-04-24T22:55:11.999Z,7.53
2023-04-24T22:57:39.496Z,7.48
2023-04-24T23:00:11.097Z,7.50
2023-04-24T23:02:39.599Z,7.50
2023-04-24T23:05:07.861Z,7.47
2023-04-24T23:07:35.727Z,7.47
2023-04-24T23:10:04.909Z,7.51
2023-04-24T23:12:32.495Z,7.52
2023-04-24T23:15:00.160Z,7.48
2023-04-24T23:17:27.684Z,7.52
2023-04-24T23:19:55.528Z,7.52
2023-04-24T23:22:23.025Z,7.53
2023-04-24T23:24:51.449Z,7.53
2023-04-24T23:27:20.268Z,7.63
2023-04-24T23:29:47.755Z,7.57
2023-04-24T23:32:15.511Z,7.61
2023-04-24T23:34:43.080Z,7.67
2023-04-24T23:37:10.665Z,7.65
2023-04-24T23:39:38.207Z,7.59
2023-04-24T23:42:07.646Z,7.45
2023-04-24T23:44:36.467Z,7.39
2023-04-24T23:47:04.371Z,7.55
2023-04-24T23:49:31.860Z,7.49
2023-04-24T23:51:59.367Z,7.53
2023-04-24T23:54:27.079Z,7.42
2023-04-24T23:56:54.591Z,7.40
2023-04-24T23:59:22.149Z,7.47
